sensor_id;sensor_type;location;lat;lon;timestamp;P1;durP1;ratioP1;P2;durP2;ratioP2
6723;SDS011;3399;52.530;13.304;2022-09-09T00:02:18;8.97;;;8.10;;
6723;SDS011;3399;52.530;13.304;2022-09-09T00:05:31;6.80;;;6.30;;
6723;SDS011;3399;52.530;13.304;2022-09-09T00:16:01;8.40;;;7.13;;
6723;SDS011;3399;52.530;13.304;2022-09-09T00:21:17;7.50;;;6.90;;
6723;SDS011;3399;52.530;13.304;2022-09-09T00:23:45;8.17;;;7.20;;
6723;SDS011;3399;52.530;13.304;2022-09-09T00:26:22;8.63;;;6.70;;
6723;SDS011;3399;52.530;13.304;2022-09-09T00:31:37;8.07;;;7.27;;
6723;SDS011;3399;52.530;13.304;2022-09-09T00:34:13;7.33;;;6.73;;
6723;SDS011;3399;52.530;13.304;2022-09-09T00:36:41;8.00;;;7.40;;
6723;SDS011;3399;52.530;13.304;2022-09-09T00:39:15;7.73;;;7.03;;
6723;SDS011;3399;52.530;13.304;2022-09-09T00:44:50;8.03;;;7.33;;
6723;SDS011;3399;52.530;13.304;2022-09-09T00:47:40;8.07;;;7.37;;
6723;SDS011;3399;52.530;13.304;2022-09-09T00:52:41;7.70;;;7.10;;
6723;SDS011;3399;52.530;13.304;2022-09-09T00:55:20;7.77;;;7.13;;
6723;SDS011;3399;52.530;13.304;2022-09-09T00:57:57;8.30;;;7.50;;
6723;SDS011;3399;52.530;13.304;2022-09-09T01:05:44;7.97;;;7.27;;
6723;SDS011;3399;52.530;13.304;2022-09-09T01:08:33;8.47;;;7.77;;
6723;SDS011;3399;52.530;13.304;2022-09-09T01:11:21;8.27;;;7.57;;
6723;SDS011;3399;52.530;13.304;2022-09-09T01:13:50;8.97;;;8.07;;
6723;SDS011;3399;52.530;13.304;2022-09-09T01:16:24;9.53;;;8.27;;
6723;SDS011;3399;52.530;13.304;2022-09-09T01:18:51;8.67;;;7.97;;
6723;SDS011;3399;52.530;13.304;2022-09-09T01:26:56;8.27;;;7.57;;
6723;SDS011;3399;52.530;13.304;2022-09-09T01:29:26;9.20;;;8.27;;
6723;SDS011;3399;52.530;13.304;2022-09-09T01:34:26;9.13;;;8.33;;
6723;SDS011;3399;52.530;13.304;2022-09-09T01:39:29;8.93;;;8.13;;
6723;SDS011;3399;52.530;13.304;2022-09-09T01:41:56;8.80;;;8.00;;
6723;SDS011;3399;52.530;13.304;2022-09-09T01:44:22;8.40;;;7.60;;
6723;SDS011;3399;52.530;13.304;2022-09-09T01:46:49;9.70;;;8.80;;
6723;SDS011;3399;52.530;13.304;2022-09-09T01:49:15;9.77;;;8.97;;
6723;SDS011;3399;52.530;13.304;2022-09-09T01:51:41;10.30;;;9.40;;
6723;SDS011;3399;52.530;13.304;2022-09-09T01:54:11;9.40;;;8.60;;
6723;SDS011;3399;52.530;13.304;2022-09-09T01:56:42;9.57;;;8.40;;
6723;SDS011;3399;52.530;13.304;2022-09-09T02:04:45;9.47;;;8.50;;
6723;SDS011;3399;52.530;13.304;2022-09-09T02:10:28;10.20;;;8.10;;
6723;SDS011;3399;52.530;13.304;2022-09-09T02:13:01;8.30;;;7.60;;
6723;SDS011;3399;52.530;13.304;2022-09-09T02:15:42;9.67;;;7.50;;
6723;SDS011;3399;52.530;13.304;2022-09-09T02:18:33;8.63;;;7.90;;
6723;SDS011;3399;52.530;13.304;2022-09-09T02:21:20;8.10;;;7.47;;
6723;SDS011;3399;52.530;13.304;2022-09-09T02:23:48;8.63;;;7.60;;
6723;SDS011;3399;52.530;13.304;2022-09-09T02:26:16;8.23;;;7.57;;
6723;SDS011;3399;52.530;13.304;2022-09-09T02:28:47;11.17;;;10.03;;
6723;SDS011;3399;52.530;13.304;2022-09-09T02:31:15;9.17;;;7.83;;
6723;SDS011;3399;52.530;13.304;2022-09-09T02:33:44;9.93;;;9.10;;
6723;SDS011;3399;52.530;13.304;2022-09-09T02:36:17;10.00;;;8.73;;
6723;SDS011;3399;52.530;13.304;2022-09-09T02:38:48;8.70;;;7.90;;
6723;SDS011;3399;52.530;13.304;2022-09-09T02:41:16;8.67;;;7.87;;
6723;SDS011;3399;52.530;13.304;2022-09-09T02:43:44;9.13;;;8.23;;
6723;SDS011;3399;52.530;13.304;2022-09-09T02:49:09;10.93;;;7.50;;
6723;SDS011;3399;52.530;13.304;2022-09-09T02:52:13;9.57;;;8.67;;
6723;SDS011;3399;52.530;13.304;2022-09-09T02:54:41;9.30;;;8.53;;
6723;SDS011;3399;52.530;13.304;2022-09-09T02:59:37;8.33;;;7.37;;
6723;SDS011;3399;52.530;13.304;2022-09-09T03:02:03;8.50;;;7.47;;
6723;SDS011;3399;52.530;13.304;2022-09-09T03:04:29;8.40;;;7.67;;
6723;SDS011;3399;52.530;13.304;2022-09-09T03:06:56;8.63;;;7.87;;
6723;SDS011;3399;52.530;13.304;2022-09-09T03:09:22;7.80;;;7.10;;
6723;SDS011;3399;52.530;13.304;2022-09-09T03:11:48;9.27;;;8.23;;
6723;SDS011;3399;52.530;13.304;2022-09-09T03:14:14;8.87;;;7.97;;
6723;SDS011;3399;52.530;13.304;2022-09-09T03:16:40;8.90;;;8.10;;
6723;SDS011;3399;52.530;13.304;2022-09-09T03:19:08;9.63;;;8.10;;
6723;SDS011;3399;52.530;13.304;2022-09-09T03:21:33;9.23;;;8.43;;
6723;SDS011;3399;52.530;13.304;2022-09-09T03:23:59;7.93;;;7.13;;
6723;SDS011;3399;52.530;13.304;2022-09-09T03:26:28;11.40;;;8.20;;
6723;SDS011;3399;52.530;13.304;2022-09-09T03:28:54;9.17;;;8.37;;
6723;SDS011;3399;52.530;13.304;2022-09-09T03:31:19;9.60;;;8.70;;
6723;SDS011;3399;52.530;13.304;2022-09-09T03:33:45;8.67;;;7.90;;
6723;SDS011;3399;52.530;13.304;2022-09-09T03:36:11;8.53;;;7.73;;
6723;SDS011;3399;52.530;13.304;2022-09-09T03:38:36;8.07;;;7.37;;
6723;SDS011;3399;52.530;13.304;2022-09-09T03:41:02;8.17;;;7.03;;
6723;SDS011;3399;52.530;13.304;2022-09-09T03:43:28;7.53;;;6.93;;
6723;SDS011;3399;52.530;13.304;2022-09-09T03:45:54;8.30;;;7.57;;
6723;SDS011;3399;52.530;13.304;2022-09-09T03:48:23;8.03;;;7.10;;
6723;SDS011;3399;52.530;13.304;2022-09-09T03:50:50;8.20;;;7.50;;
6723;SDS011;3399;52.530;13.304;2022-09-09T03:53:18;8.67;;;7.87;;
6723;SDS011;3399;52.530;13.304;2022-09-09T03:55:47;9.03;;;7.20;;
6723;SDS011;3399;52.530;13.304;2022-09-09T03:58:15;7.27;;;6.67;;
6723;SDS011;3399;52.530;13.304;2022-09-09T04:00:43;8.47;;;7.67;;
6723;SDS011;3399;52.530;13.304;2022-09-09T04:03:17;8.83;;;7.93;;
6723;SDS011;3399;52.530;13.304;2022-09-09T04:05:43;7.53;;;6.93;;
6723;SDS011;3399;52.530;13.304;2022-09-09T04:08:09;8.47;;;7.20;;
6723;SDS011;3399;52.530;13.304;2022-09-09T04:10:36;7.20;;;6.60;;
6723;SDS011;3399;52.530;13.304;2022-09-09T04:13:02;8.63;;;7.07;;
6723;SDS011;3399;52.530;13.304;2022-09-09T04:15:28;7.97;;;7.20;;
6723;SDS011;3399;52.530;13.304;2022-09-09T04:17:54;9.43;;;6.33;;
6723;SDS011;3399;52.530;13.304;2022-09-09T04:20:20;7.40;;;6.80;;
6723;SDS011;3399;52.530;13.304;2022-09-09T04:22:46;7.10;;;6.53;;
6723;SDS011;3399;52.530;13.304;2022-09-09T04:25:12;7.73;;;7.10;;
6723;SDS011;3399;52.530;13.304;2022-09-09T04:27:37;7.13;;;6.53;;
6723;SDS011;3399;52.530;13.304;2022-09-09T04:30:03;7.93;;;7.23;;
6723;SDS011;3399;52.530;13.304;2022-09-09T04:32:29;7.30;;;6.70;;
6723;SDS011;3399;52.530;13.304;2022-09-09T04:34:56;7.57;;;6.83;;
6723;SDS011;3399;52.530;13.304;2022-09-09T04:37:22;7.07;;;6.47;;
6723;SDS011;3399;52.530;13.304;2022-09-09T04:39:49;7.97;;;7.17;;
6723;SDS011;3399;52.530;13.304;2022-09-09T04:42:15;8.20;;;6.80;;
6723;SDS011;3399;52.530;13.304;2022-09-09T04:44:42;7.63;;;6.93;;
6723;SDS011;3399;52.530;13.304;2022-09-09T04:47:08;7.53;;;6.83;;
6723;SDS011;3399;52.530;13.304;2022-09-09T04:49:34;7.60;;;6.80;;
6723;SDS011;3399;52.530;13.304;2022-09-09T04:52:00;7.83;;;7.20;;
6723;SDS011;3399;52.530;13.304;2022-09-09T04:54:26;7.03;;;6.37;;
6723;SDS011;3399;52.530;13.304;2022-09-09T04:56:52;7.83;;;7.03;;
6723;SDS011;3399;52.530;13.304;2022-09-09T04:59:18;8.07;;;6.63;;
6723;SDS011;3399;52.530;13.304;2022-09-09T05:01:43;6.80;;;6.10;;
6723;SDS011;3399;52.530;13.304;2022-09-09T05:04:09;9.00;;;8.07;;
6723;SDS011;3399;52.530;13.304;2022-09-09T05:06:34;7.60;;;6.97;;
6723;SDS011;3399;52.530;13.304;2022-09-09T05:09:01;7.03;;;6.43;;
6723;SDS011;3399;52.530;13.304;2022-09-09T05:11:27;8.67;;;7.17;;
6723;SDS011;3399;52.530;13.304;2022-09-09T05:13:57;7.50;;;6.90;;
6723;SDS011;3399;52.530;13.304;2022-09-09T05:16:23;7.70;;;6.70;;
6723;SDS011;3399;52.530;13.304;2022-09-09T05:18:48;7.63;;;6.93;;
6723;SDS011;3399;52.530;13.304;2022-09-09T05:21:16;6.93;;;6.33;;
6723;SDS011;3399;52.530;13.304;2022-09-09T05:23:42;7.00;;;6.23;;
6723;SDS011;3399;52.530;13.304;2022-09-09T05:26:11;6.53;;;5.90;;
6723;SDS011;3399;52.530;13.304;2022-09-09T05:28:38;7.07;;;5.80;;
6723;SDS011;3399;52.530;13.304;2022-09-09T05:31:05;6.83;;;6.10;;
6723;SDS011;3399;52.530;13.304;2022-09-09T05:33:37;8.07;;;5.77;;
6723;SDS011;3399;52.530;13.304;2022-09-09T05:36:06;6.60;;;6.00;;
6723;SDS011;3399;52.530;13.304;2022-09-09T05:38:33;6.03;;;5.50;;
6723;SDS011;3399;52.530;13.304;2022-09-09T05:41:00;5.33;;;4.83;;
6723;SDS011;3399;52.530;13.304;2022-09-09T05:43:26;4.67;;;4.20;;
6723;SDS011;3399;52.530;13.304;2022-09-09T05:45:59;5.10;;;4.57;;
6723;SDS011;3399;52.530;13.304;2022-09-09T05:48:32;6.07;;;4.90;;
6723;SDS011;3399;52.530;13.304;2022-09-09T05:50:59;11.53;;;8.03;;
6723;SDS011;3399;52.530;13.304;2022-09-09T05:53:26;7.27;;;5.83;;
6723;SDS011;3399;52.530;13.304;2022-09-09T05:55:59;9.67;;;4.70;;
6723;SDS011;3399;52.530;13.304;2022-09-09T05:58:26;4.87;;;4.47;;
6723;SDS011;3399;52.530;13.304;2022-09-09T06:00:52;3.97;;;3.67;;
6723;SDS011;3399;52.530;13.304;2022-09-09T06:03:20;5.93;;;4.30;;
6723;SDS011;3399;52.530;13.304;2022-09-09T06:05:56;8.63;;;4.40;;
6723;SDS011;3399;52.530;13.304;2022-09-09T06:08:22;5.37;;;4.77;;
6723;SDS011;3399;52.530;13.304;2022-09-09T06:10:48;5.87;;;4.20;;
6723;SDS011;3399;52.530;13.304;2022-09-09T06:13:13;5.10;;;4.57;;
6723;SDS011;3399;52.530;13.304;2022-09-09T06:15:39;4.37;;;4.07;;
6723;SDS011;3399;52.530;13.304;2022-09-09T06:18:14;6.03;;;4.27;;
6723;SDS011;3399;52.530;13.304;2022-09-09T06:20:42;4.30;;;4.00;;
6723;SDS011;3399;52.530;13.304;2022-09-09T06:23:08;3.87;;;3.57;;
6723;SDS011;3399;52.530;13.304;2022-09-09T06:25:33;5.10;;;4.60;;
6723;SDS011;3399;52.530;13.304;2022-09-09T06:27:59;3.90;;;3.60;;
6723;SDS011;3399;52.530;13.304;2022-09-09T06:30:24;6.53;;;4.63;;
6723;SDS011;3399;52.530;13.304;2022-09-09T06:32:50;5.00;;;4.37;;
6723;SDS011;3399;52.530;13.304;2022-09-09T06:35:16;3.50;;;3.20;;
6723;SDS011;3399;52.530;13.304;2022-09-09T06:37:44;4.67;;;4.00;;
6723;SDS011;3399;52.530;13.304;2022-09-09T06:40:11;4.27;;;3.57;;
6723;SDS011;3399;52.530;13.304;2022-09-09T06:42:36;5.00;;;4.50;;
6723;SDS011;3399;52.530;13.304;2022-09-09T06:45:02;7.40;;;4.10;;
6723;SDS011;3399;52.530;13.304;2022-09-09T06:47:28;4.90;;;3.37;;
6723;SDS011;3399;52.530;13.304;2022-09-09T06:49:53;6.80;;;4.47;;
6723;SDS011;3399;52.530;13.304;2022-09-09T06:52:18;5.13;;;3.60;;
6723;SDS011;3399;52.530;13.304;2022-09-09T06:54:44;5.17;;;3.63;;
6723;SDS011;3399;52.530;13.304;2022-09-09T06:57:10;4.20;;;3.10;;
6723;SDS011;3399;52.530;13.304;2022-09-09T06:59:35;3.93;;;3.20;;
6723;SDS011;3399;52.530;13.304;2022-09-09T07:02:02;5.07;;;3.27;;
6723;SDS011;3399;52.530;13.304;2022-09-09T07:04:28;5.93;;;3.33;;
6723;SDS011;3399;52.530;13.304;2022-09-09T07:06:53;4.17;;;3.33;;
6723;SDS011;3399;52.530;13.304;2022-09-09T07:09:18;5.00;;;2.93;;
6723;SDS011;3399;52.530;13.304;2022-09-09T07:11:46;8.23;;;3.20;;
6723;SDS011;3399;52.530;13.304;2022-09-09T07:14:14;3.23;;;2.93;;
6723;SDS011;3399;52.530;13.304;2022-09-09T07:16:43;5.83;;;2.93;;
6723;SDS011;3399;52.530;13.304;2022-09-09T07:19:10;6.13;;;2.63;;
6723;SDS011;3399;52.530;13.304;2022-09-09T07:21:36;6.60;;;2.50;;
6723;SDS011;3399;52.530;13.304;2022-09-09T07:24:02;3.63;;;2.63;;
6723;SDS011;3399;52.530;13.304;2022-09-09T07:26:28;2.33;;;1.93;;
6723;SDS011;3399;52.530;13.304;2022-09-09T07:28:55;5.10;;;2.37;;
6723;SDS011;3399;52.530;13.304;2022-09-09T07:31:26;3.97;;;2.37;;
6723;SDS011;3399;52.530;13.304;2022-09-09T07:33:55;4.53;;;2.40;;
6723;SDS011;3399;52.530;13.304;2022-09-09T07:36:23;4.33;;;2.50;;
6723;SDS011;3399;52.530;13.304;2022-09-09T07:38:52;4.17;;;1.90;;
6723;SDS011;3399;52.530;13.304;2022-09-09T07:41:23;6.93;;;2.30;;
6723;SDS011;3399;52.530;13.304;2022-09-09T07:43:50;2.70;;;2.27;;
6723;SDS011;3399;52.530;13.304;2022-09-09T07:46:19;4.83;;;2.23;;
6723;SDS011;3399;52.530;13.304;2022-09-09T07:48:46;2.53;;;2.03;;
6723;SDS011;3399;52.530;13.304;2022-09-09T07:51:16;2.47;;;2.20;;
6723;SDS011;3399;52.530;13.304;2022-09-09T07:53:44;2.70;;;1.83;;
6723;SDS011;3399;52.530;13.304;2022-09-09T07:56:12;9.47;;;2.03;;
6723;SDS011;3399;52.530;13.304;2022-09-09T07:58:39;3.60;;;1.80;;
6723;SDS011;3399;52.530;13.304;2022-09-09T08:01:09;3.43;;;1.90;;
6723;SDS011;3399;52.530;13.304;2022-09-09T08:03:40;3.03;;;1.77;;
6723;SDS011;3399;52.530;13.304;2022-09-09T08:06:07;2.63;;;1.70;;
6723;SDS011;3399;52.530;13.304;2022-09-09T08:08:34;4.27;;;1.80;;
6723;SDS011;3399;52.530;13.304;2022-09-09T08:11:01;2.23;;;1.73;;
6723;SDS011;3399;52.530;13.304;2022-09-09T08:13:32;2.10;;;1.47;;
6723;SDS011;3399;52.530;13.304;2022-09-09T08:16:08;3.10;;;1.77;;
6723;SDS011;3399;52.530;13.304;2022-09-09T08:18:39;5.57;;;1.70;;
6723;SDS011;3399;52.530;13.304;2022-09-09T08:21:06;6.13;;;1.47;;
6723;SDS011;3399;52.530;13.304;2022-09-09T08:23:33;2.00;;;1.83;;
6723;SDS011;3399;52.530;13.304;2022-09-09T08:26:03;2.43;;;1.53;;
6723;SDS011;3399;52.530;13.304;2022-09-09T08:28:30;2.57;;;1.90;;
6723;SDS011;3399;52.530;13.304;2022-09-09T08:30:56;4.33;;;2.07;;
6723;SDS011;3399;52.530;13.304;2022-09-09T08:33:29;4.27;;;2.13;;
6723;SDS011;3399;52.530;13.304;2022-09-09T08:35:54;2.97;;;1.50;;
6723;SDS011;3399;52.530;13.304;2022-09-09T08:38:20;5.13;;;1.57;;
6723;SDS011;3399;52.530;13.304;2022-09-09T08:40:46;1.93;;;1.47;;
6723;SDS011;3399;52.530;13.304;2022-09-09T08:43:16;3.10;;;1.83;;
6723;SDS011;3399;52.530;13.304;2022-09-09T08:45:49;1.87;;;1.57;;
6723;SDS011;3399;52.530;13.304;2022-09-09T08:49:05;3.83;;;1.57;;
6723;SDS011;3399;52.530;13.304;2022-09-09T08:51:19;3.00;;;1.70;;
6723;SDS011;3399;52.530;13.304;2022-09-09T08:53:46;2.53;;;1.83;;
6723;SDS011;3399;52.530;13.304;2022-09-09T08:56:15;5.33;;;1.80;;
6723;SDS011;3399;52.530;13.304;2022-09-09T08:58:47;2.97;;;1.73;;
6723;SDS011;3399;52.530;13.304;2022-09-09T09:07:14;9.47;;;1.77;;
6723;SDS011;3399;52.530;13.304;2022-09-09T09:12:45;3.83;;;1.60;;
6723;SDS011;3399;52.530;13.304;2022-09-09T09:15:23;2.47;;;1.67;;
6723;SDS011;3399;52.530;13.304;2022-09-09T09:17:50;2.77;;;1.43;;
6723;SDS011;3399;52.530;13.304;2022-09-09T09:20:16;1.57;;;1.47;;
6723;SDS011;3399;52.530;13.304;2022-09-09T09:22:51;2.67;;;1.73;;
6723;SDS011;3399;52.530;13.304;2022-09-09T09:25:20;1.50;;;1.40;;
6723;SDS011;3399;52.530;13.304;2022-09-09T09:27:57;1.70;;;1.60;;
6723;SDS011;3399;52.530;13.304;2022-09-09T09:30:40;1.90;;;1.43;;
6723;SDS011;3399;52.530;13.304;2022-09-09T09:33:32;2.30;;;1.50;;
6723;SDS011;3399;52.530;13.304;2022-09-09T09:36:02;3.57;;;1.80;;
6723;SDS011;3399;52.530;13.304;2022-09-09T09:38:33;1.83;;;1.53;;
6723;SDS011;3399;52.530;13.304;2022-09-09T09:40:59;3.03;;;1.13;;
6723;SDS011;3399;52.530;13.304;2022-09-09T09:43:32;1.37;;;1.10;;
6723;SDS011;3399;52.530;13.304;2022-09-09T09:45:59;2.73;;;1.50;;
6723;SDS011;3399;52.530;13.304;2022-09-09T09:48:28;2.23;;;1.60;;
6723;SDS011;3399;52.530;13.304;2022-09-09T09:50:54;1.53;;;1.43;;
6723;SDS011;3399;52.530;13.304;2022-09-09T09:55:55;4.27;;;1.50;;
6723;SDS011;3399;52.530;13.304;2022-09-09T09:58:33;2.50;;;1.30;;
6723;SDS011;3399;52.530;13.304;2022-09-09T10:01:33;2.00;;;1.60;;
6723;SDS011;3399;52.530;13.304;2022-09-09T10:04:00;3.27;;;1.33;;
6723;SDS011;3399;52.530;13.304;2022-09-09T10:06:31;4.50;;;1.57;;
6723;SDS011;3399;52.530;13.304;2022-09-09T10:08:58;4.50;;;1.60;;
6723;SDS011;3399;52.530;13.304;2022-09-09T10:11:44;3.77;;;2.07;;
6723;SDS011;3399;52.530;13.304;2022-09-09T10:14:44;2.13;;;1.47;;
6723;SDS011;3399;52.530;13.304;2022-09-09T10:17:21;4.57;;;1.40;;
6723;SDS011;3399;52.530;13.304;2022-09-09T10:20:29;3.43;;;1.63;;
6723;SDS011;3399;52.530;13.304;2022-09-09T10:29:11;2.20;;;1.33;;
6723;SDS011;3399;52.530;13.304;2022-09-09T10:34:55;3.63;;;1.93;;
6723;SDS011;3399;52.530;13.304;2022-09-09T10:40:31;2.90;;;1.47;;
6723;SDS011;3399;52.530;13.304;2022-09-09T10:43:07;1.83;;;1.37;;
6723;SDS011;3399;52.530;13.304;2022-09-09T10:51:05;2.97;;;1.10;;
6723;SDS011;3399;52.530;13.304;2022-09-09T10:53:53;2.83;;;1.60;;
6723;SDS011;3399;52.530;13.304;2022-09-09T10:56:44;2.60;;;1.13;;
6723;SDS011;3399;52.530;13.304;2022-09-09T10:59:20;2.67;;;1.03;;
6723;SDS011;3399;52.530;13.304;2022-09-09T11:01:58;1.23;;;0.80;;
6723;SDS011;3399;52.530;13.304;2022-09-09T11:07:05;2.57;;;1.33;;
6723;SDS011;3399;52.530;13.304;2022-09-09T11:09:36;3.60;;;1.40;;
6723;SDS011;3399;52.530;13.304;2022-09-09T11:12:09;1.73;;;1.17;;
6723;SDS011;3399;52.530;13.304;2022-09-09T11:14:43;3.50;;;1.13;;
6723;SDS011;3399;52.530;13.304;2022-09-09T11:17:18;1.00;;;1.00;;
6723;SDS011;3399;52.530;13.304;2022-09-09T11:19:48;4.23;;;1.33;;
6723;SDS011;3399;52.530;13.304;2022-09-09T11:22:30;2.87;;;1.20;;
6723;SDS011;3399;52.530;13.304;2022-09-09T11:30:15;2.63;;;1.23;;
6723;SDS011;3399;52.530;13.304;2022-09-09T11:38:34;2.07;;;1.10;;
6723;SDS011;3399;52.530;13.304;2022-09-09T11:41:11;1.90;;;1.10;;
6723;SDS011;3399;52.530;13.304;2022-09-09T11:43:43;2.57;;;1.20;;
6723;SDS011;3399;52.530;13.304;2022-09-09T11:46:11;3.53;;;1.43;;
6723;SDS011;3399;52.530;13.304;2022-09-09T11:48:41;2.35;;;1.20;;
6723;SDS011;3399;52.530;13.304;2022-09-09T11:51:12;3.27;;;1.20;;
6723;SDS011;3399;52.530;13.304;2022-09-09T11:53:51;1.50;;;1.30;;
6723;SDS011;3399;52.530;13.304;2022-09-09T12:01:30;1.90;;;1.23;;
6723;SDS011;3399;52.530;13.304;2022-09-09T12:04:05;2.28;;;1.13;;
6723;SDS011;3399;52.530;13.304;2022-09-09T12:06:42;1.83;;;0.80;;
6723;SDS011;3399;52.530;13.304;2022-09-09T12:09:17;1.23;;;0.80;;
6723;SDS011;3399;52.530;13.304;2022-09-09T12:11:50;1.25;;;0.80;;
6723;SDS011;3399;52.530;13.304;2022-09-09T12:19:59;2.63;;;1.05;;
6723;SDS011;3399;52.530;13.304;2022-09-09T12:25:43;1.80;;;1.10;;
6723;SDS011;3399;52.530;13.304;2022-09-09T12:28:39;1.60;;;1.38;;
6723;SDS011;3399;52.530;13.304;2022-09-09T12:33:50;4.20;;;1.48;;
6723;SDS011;3399;52.530;13.304;2022-09-09T12:36:18;3.03;;;0.95;;
6723;SDS011;3399;52.530;13.304;2022-09-09T12:38:46;3.25;;;1.42;;
6723;SDS011;3399;52.530;13.304;2022-09-09T12:41:19;4.03;;;1.02;;
6723;SDS011;3399;52.530;13.304;2022-09-09T12:43:46;2.90;;;1.20;;
6723;SDS011;3399;52.530;13.304;2022-09-09T12:46:18;2.83;;;1.05;;
6723;SDS011;3399;52.530;13.304;2022-09-09T12:48:56;5.03;;;0.98;;
6723;SDS011;3399;52.530;13.304;2022-09-09T12:51:27;4.82;;;1.48;;
6723;SDS011;3399;52.530;13.304;2022-09-09T12:53:55;3.17;;;1.10;;
6723;SDS011;3399;52.530;13.304;2022-09-09T12:56:22;2.78;;;1.15;;
6723;SDS011;3399;52.530;13.304;2022-09-09T12:58:54;2.30;;;0.90;;
6723;SDS011;3399;52.530;13.304;2022-09-09T13:01:31;2.97;;;1.05;;
6723;SDS011;3399;52.530;13.304;2022-09-09T13:03:58;1.48;;;1.10;;
6723;SDS011;3399;52.530;13.304;2022-09-09T13:06:25;3.33;;;1.23;;
6723;SDS011;3399;52.530;13.304;2022-09-09T13:08:53;1.17;;;0.50;;
6723;SDS011;3399;52.530;13.304;2022-09-09T13:11:24;2.50;;;1.35;;
6723;SDS011;3399;52.530;13.304;2022-09-09T13:13:56;1.52;;;0.95;;
6723;SDS011;3399;52.530;13.304;2022-09-09T13:16:26;1.50;;;1.08;;
6723;SDS011;3399;52.530;13.304;2022-09-09T13:18:59;1.73;;;0.75;;
6723;SDS011;3399;52.530;13.304;2022-09-09T13:21:38;5.00;;;0.98;;
6723;SDS011;3399;52.530;13.304;2022-09-09T13:24:05;2.97;;;1.20;;
6723;SDS011;3399;52.530;13.304;2022-09-09T13:26:53;2.17;;;1.25;;
6723;SDS011;3399;52.530;13.304;2022-09-09T13:29:21;3.13;;;0.82;;
6723;SDS011;3399;52.530;13.304;2022-09-09T13:31:53;4.30;;;1.47;;
6723;SDS011;3399;52.530;13.304;2022-09-09T13:36:52;2.10;;;0.97;;
6723;SDS011;3399;52.530;13.304;2022-09-09T13:39:27;5.10;;;1.17;;
6723;SDS011;3399;52.530;13.304;2022-09-09T13:41:53;2.90;;;1.80;;
6723;SDS011;3399;52.530;13.304;2022-09-09T13:44:27;2.15;;;1.17;;
6723;SDS011;3399;52.530;13.304;2022-09-09T13:47:02;6.55;;;1.10;;
6723;SDS011;3399;52.530;13.304;2022-09-09T13:49:30;4.82;;;1.60;;
6723;SDS011;3399;52.530;13.304;2022-09-09T13:52:14;1.80;;;1.20;;
6723;SDS011;3399;52.530;13.304;2022-09-09T13:54:42;1.50;;;0.93;;
6723;SDS011;3399;52.530;13.304;2022-09-09T13:57:14;1.75;;;1.17;;
6723;SDS011;3399;52.530;13.304;2022-09-09T13:59:50;1.60;;;1.37;;
6723;SDS011;3399;52.530;13.304;2022-09-09T14:02:17;6.20;;;1.17;;
6723;SDS011;3399;52.530;13.304;2022-09-09T14:04:43;0.60;;;0.60;;
6723;SDS011;3399;52.530;13.304;2022-09-09T14:07:10;4.03;;;1.15;;
6723;SDS011;3399;52.530;13.304;2022-09-09T14:09:38;2.08;;;1.10;;
6723;SDS011;3399;52.530;13.304;2022-09-09T14:12:04;4.18;;;1.63;;
6723;SDS011;3399;52.530;13.304;2022-09-09T14:14:30;2.97;;;0.90;;
6723;SDS011;3399;52.530;13.304;2022-09-09T14:16:55;0.80;;;0.75;;
6723;SDS011;3399;52.530;13.304;2022-09-09T14:19:21;3.33;;;1.35;;
6723;SDS011;3399;52.530;13.304;2022-09-09T14:21:46;2.45;;;1.00;;
6723;SDS011;3399;52.530;13.304;2022-09-09T14:24:12;6.50;;;1.10;;
6723;SDS011;3399;52.530;13.304;2022-09-09T14:26:37;2.50;;;0.93;;
6723;SDS011;3399;52.530;13.304;2022-09-09T14:29:03;4.03;;;1.35;;
6723;SDS011;3399;52.530;13.304;2022-09-09T14:31:28;3.10;;;1.70;;
6723;SDS011;3399;52.530;13.304;2022-09-09T14:33:54;1.00;;;0.95;;
6723;SDS011;3399;52.530;13.304;2022-09-09T14:36:19;1.80;;;0.90;;
6723;SDS011;3399;52.530;13.304;2022-09-09T14:38:45;1.50;;;0.93;;
6723;SDS011;3399;52.530;13.304;2022-09-09T14:41:12;3.30;;;1.10;;
6723;SDS011;3399;52.530;13.304;2022-09-09T14:43:41;2.85;;;1.17;;
6723;SDS011;3399;52.530;13.304;2022-09-09T14:46:08;3.10;;;1.40;;
6723;SDS011;3399;52.530;13.304;2022-09-09T14:48:36;2.42;;;0.93;;
6723;SDS011;3399;52.530;13.304;2022-09-09T14:51:05;3.22;;;1.40;;
6723;SDS011;3399;52.530;13.304;2022-09-09T14:53:31;2.03;;;0.88;;
6723;SDS011;3399;52.530;13.304;2022-09-09T14:56:04;1.70;;;0.75;;
6723;SDS011;3399;52.530;13.304;2022-09-09T14:58:34;1.30;;;0.82;;
6723;SDS011;3399;52.530;13.304;2022-09-09T15:01:07;5.05;;;1.35;;
6723;SDS011;3399;52.530;13.304;2022-09-09T15:03:35;2.20;;;0.93;;
6723;SDS011;3399;52.530;13.304;2022-09-09T15:06:05;1.45;;;0.90;;
6723;SDS011;3399;52.530;13.304;2022-09-09T15:08:35;3.38;;;1.30;;
6723;SDS011;3399;52.530;13.304;2022-09-09T15:11:02;3.00;;;1.05;;
6723;SDS011;3399;52.530;13.304;2022-09-09T15:13:29;1.75;;;1.15;;
6723;SDS011;3399;52.530;13.304;2022-09-09T15:15:54;3.75;;;1.65;;
6723;SDS011;3399;52.530;13.304;2022-09-09T15:18:20;2.15;;;1.10;;
6723;SDS011;3399;52.530;13.304;2022-09-09T15:20:46;4.90;;;1.10;;
6723;SDS011;3399;52.530;13.304;2022-09-09T15:23:12;12.43;;;8.88;;
6723;SDS011;3399;52.530;13.304;2022-09-09T15:25:49;1.38;;;1.13;;
6723;SDS011;3399;52.530;13.304;2022-09-09T15:28:15;1.83;;;1.02;;
6723;SDS011;3399;52.530;13.304;2022-09-09T15:30:41;2.17;;;1.40;;
6723;SDS011;3399;52.530;13.304;2022-09-09T15:33:07;1.55;;;1.23;;
6723;SDS011;3399;52.530;13.304;2022-09-09T15:35:33;2.80;;;1.30;;
6723;SDS011;3399;52.530;13.304;2022-09-09T15:38:01;2.65;;;1.50;;
6723;SDS011;3399;52.530;13.304;2022-09-09T15:40:27;4.28;;;1.73;;
6723;SDS011;3399;52.530;13.304;2022-09-09T15:42:53;4.72;;;1.70;;
6723;SDS011;3399;52.530;13.304;2022-09-09T15:45:18;4.93;;;1.77;;
6723;SDS011;3399;52.530;13.304;2022-09-09T15:47:46;1.77;;;1.17;;
6723;SDS011;3399;52.530;13.304;2022-09-09T15:50:12;3.50;;;1.50;;
6723;SDS011;3399;52.530;13.304;2022-09-09T15:52:38;1.05;;;0.80;;
6723;SDS011;3399;52.530;13.304;2022-09-09T15:55:03;2.58;;;1.20;;
6723;SDS011;3399;52.530;13.304;2022-09-09T15:57:29;2.00;;;1.40;;
6723;SDS011;3399;52.530;13.304;2022-09-09T15:59:54;1.60;;;1.10;;
6723;SDS011;3399;52.530;13.304;2022-09-09T16:02:20;2.33;;;1.20;;
6723;SDS011;3399;52.530;13.304;2022-09-09T16:04:46;2.35;;;1.30;;
6723;SDS011;3399;52.530;13.304;2022-09-09T16:07:15;3.40;;;2.05;;
6723;SDS011;3399;52.530;13.304;2022-09-09T16:09:40;2.03;;;1.20;;
6723;SDS011;3399;52.530;13.304;2022-09-09T16:12:08;1.77;;;1.13;;
6723;SDS011;3399;52.530;13.304;2022-09-09T16:14:37;4.05;;;1.58;;
6723;SDS011;3399;52.530;13.304;2022-09-09T16:17:03;2.72;;;1.27;;
6723;SDS011;3399;52.530;13.304;2022-09-09T16:19:30;1.70;;;1.60;;
6723;SDS011;3399;52.530;13.304;2022-09-09T16:21:56;2.08;;;1.60;;
6723;SDS011;3399;52.530;13.304;2022-09-09T16:24:22;5.03;;;1.88;;
6723;SDS011;3399;52.530;13.304;2022-09-09T16:26:49;2.78;;;1.50;;
6723;SDS011;3399;52.530;13.304;2022-09-09T16:29:16;3.80;;;1.95;;
6723;SDS011;3399;52.530;13.304;2022-09-09T16:31:43;3.20;;;1.73;;
6723;SDS011;3399;52.530;13.304;2022-09-09T16:34:09;4.03;;;2.20;;
6723;SDS011;3399;52.530;13.304;2022-09-09T16:36:35;4.25;;;2.17;;
6723;SDS011;3399;52.530;13.304;2022-09-09T16:39:04;5.63;;;1.85;;
6723;SDS011;3399;52.530;13.304;2022-09-09T16:41:32;2.42;;;1.50;;
6723;SDS011;3399;52.530;13.304;2022-09-09T16:43:59;2.45;;;1.58;;
6723;SDS011;3399;52.530;13.304;2022-09-09T16:46:30;4.03;;;1.67;;
6723;SDS011;3399;52.530;13.304;2022-09-09T16:48:57;3.80;;;1.52;;
6723;SDS011;3399;52.530;13.304;2022-09-09T16:51:29;3.13;;;1.42;;
6723;SDS011;3399;52.530;13.304;2022-09-09T16:54:00;4.07;;;2.05;;
6723;SDS011;3399;52.530;13.304;2022-09-09T16:56:28;3.15;;;2.30;;
6723;SDS011;3399;52.530;13.304;2022-09-09T16:58:56;3.60;;;2.05;;
6723;SDS011;3399;52.530;13.304;2022-09-09T17:01:24;2.22;;;1.90;;
6723;SDS011;3399;52.530;13.304;2022-09-09T17:03:57;3.00;;;1.80;;
6723;SDS011;3399;52.530;13.304;2022-09-09T17:06:25;2.90;;;2.30;;
6723;SDS011;3399;52.530;13.304;2022-09-09T17:08:55;2.47;;;1.83;;